Time;durP1;ratioP1;P1;durP2;ratioP2;P2;SDS_P1;SDS_P2;PMS_P1;PMS_P2;Temp;Humidity;BMP_temperature;BMP_pressure;BME280_temperature;BME280_humidity;BME280_pressure;Samples;Min_cycle;Max_cycle;Signal;HPM_P1;HPM_P2
2022/10/27 00:02:18;;;;;;;12.43;6.00;;;;;;;19.61;63.12;98975.84;5299730;27;20050;-84
2022/10/27 00:04:45;;;;;;;10.10;5.10;;;;;;;20.10;60.95;98972.63;5300007;27;20065;-84
2022/10/27 00:07:12;;;;;;;10.20;4.70;;;;;;;20.52;58.50;98979.37;5299782;27;20059;-84
2022/10/27 00:09:39;;;;;;;11.15;5.82;;;;;;;19.72;61.09;98980.41;5280429;27;20053;-85
2022/10/27 00:12:06;;;;;;;12.25;5.00;;;;;;;19.66;61.78;98981.63;5299988;27;20057;-85
2022/10/27 00:14:33;;;;;;;11.25;5.22;;;;;;;20.51;58.19;98982.94;5299634;27;20060;-84
2022/10/27 00:17:00;;;;;;;10.15;5.10;;;;;;;19.69;60.72;98989.31;5300150;27;20060;-84
2022/10/27 00:19:27;;;;;;;11.25;5.10;;;;;;;17.54;68.60;98987.44;5300206;27;20049;-84
2022/10/27 00:21:54;;;;;;;12.25;5.32;;;;;;;16.70;72.90;98993.81;5299738;27;20083;-84
2022/10/27 00:24:20;;;;;;;12.32;5.97;;;;;;;18.11;68.36;98995.50;5299989;27;20113;-84
2022/10/27 00:26:47;;;;;;;11.12;5.53;;;;;;;18.41;66.94;98994.66;5280707;27;20105;-84
2022/10/27 00:29:14;;;;;;;12.13;6.20;;;;;;;19.28;63.47;98999.75;5299576;27;20098;-84
2022/10/27 00:31:41;;;;;;;12.02;5.50;;;;;;;19.89;61.18;98999.31;5299895;27;20072;-84
2022/10/27 00:34:08;;;;;;;10.43;5.78;;;;;;;19.29;62.41;98993.59;5300118;27;20449;-84
2022/10/27 00:36:35;;;;;;;15.82;6.15;;;;;;;18.65;64.26;98995.81;5299548;27;20064;-84
2022/10/27 00:39:02;;;;;;;10.50;5.12;;;;;;;19.13;63.11;98993.69;5300026;27;20050;-84
2022/10/27 00:41:37;;;;;;;11.20;5.25;;;;;;;18.86;63.72;99001.50;5300208;27;20104;-84
2022/10/27 00:44:39;;;;;;;11.40;5.40;;;;;;;19.28;62.12;98997.16;5299740;27;20053;-84
2022/10/27 00:47:31;;;;;;;10.10;5.10;;;;;;;19.37;61.67;99000.03;5300080;27;20442;-84
2022/10/27 00:49:58;;;;;;;11.43;5.15;;;;;;;20.09;58.38;98999.75;5299727;27;20041;-84
2022/10/27 00:52:28;;;;;;;11.75;5.75;;;;;;;19.56;59.59;98991.84;5299851;27;20061;-84
2022/10/27 00:54:57;;;;;;;11.32;5.12;;;;;;;19.26;60.83;99001.66;5299777;27;20486;-84
2022/10/27 00:57:25;;;;;;;10.30;4.47;;;;;;;19.08;61.75;99001.00;5280070;27;20400;-84
2022/10/27 00:59:52;;;;;;;10.98;5.20;;;;;;;18.57;65.20;99003.22;5280491;27;20529;-84
2022/10/27 01:02:19;;;;;;;12.65;6.28;;;;;;;19.18;63.14;98999.50;5299995;27;20052;-84
2022/10/27 01:04:59;;;;;;;11.50;5.20;;;;;;;19.88;59.86;99005.50;5280005;27;20079;-84
2022/10/27 01:07:26;;;;;;;10.98;5.00;;;;;;;19.26;60.65;99001.66;5299931;27;20064;-84
2022/10/27 01:09:53;;;;;;;10.65;5.07;;;;;;;18.94;61.40;98996.66;5299240;27;20399;-84
2022/10/27 01:12:20;;;;;;;12.00;6.40;;;;;;;19.22;59.48;99010.59;5280064;27;20061;-84
2022/10/27 01:14:52;;;;;;;13.00;6.05;;;;;;;19.40;60.31;99006.00;5299793;27;20392;-84
2022/10/27 01:17:19;;;;;;;12.95;6.40;;;;;;;18.77;62.73;99007.28;5299552;27;20053;-84
2022/10/27 01:20:10;;;;;;;12.90;6.25;;;;;;;18.84;63.14;99003.37;5299898;27;20416;-84
2022/10/27 01:22:52;;;;;;;11.88;6.10;;;;;;;18.94;62.92;99003.66;5299983;27;20617;-84
2022/10/27 01:25:38;;;;;;;9.93;4.78;;;;;;;18.51;64.02;99003.63;5299389;27;20120;-84
2022/10/27 01:28:29;;;;;;;11.05;5.05;;;;;;;18.95;62.63;99003.56;5299837;27;20064;-84
2022/10/27 01:31:10;;;;;;;9.63;4.57;;;;;;;18.41;64.55;99008.53;5299772;27;20056;-84
2022/10/27 01:34:11;;;;;;;11.55;5.07;;;;;;;19.32;61.74;99019.56;5280097;27;20080;-84
2022/10/27 01:36:44;;;;;;;8.82;3.80;;;;;;;18.69;63.78;99018.19;5280532;27;20061;-85
2022/10/27 01:39:21;;;;;;;9.55;3.85;;;;;;;17.87;66.32;99026.50;5279958;27;20057;-84
2022/10/27 01:41:53;;;;;;;10.43;4.60;;;;;;;17.88;67.54;99028.19;5299944;27;20041;-84
2022/10/27 01:44:36;;;;;;;9.13;4.37;;;;;;;18.11;66.83;99026.84;5299775;27;20062;-84
2022/10/27 01:47:04;;;;;;;10.45;5.03;;;;;;;18.47;65.89;99029.06;5299347;27;20064;-84
2022/10/27 01:49:35;;;;;;;11.23;4.45;;;;;;;19.38;63.12;99037.50;5280404;27;20053;-84
2022/10/27 01:52:07;;;;;;;8.40;3.72;;;;;;;19.92;60.35;99043.63;5299613;27;20041;-84
2022/10/27 01:54:35;;;;;;;9.05;3.75;;;;;;;20.11;59.17;99038.03;5299300;27;20103;-84
2022/10/27 01:57:30;;;;;;;8.25;3.90;;;;;;;19.43;62.33;99035.41;5299862;27;20091;-84
2022/10/27 02:00:01;;;;;;;8.75;3.47;;;;;;;19.46;62.61;99044.84;5299429;27;20060;-84
2022/10/27 02:02:43;;;;;;;9.15;3.90;;;;;;;18.63;66.15;99043.84;5280597;27;20109;-84
2022/10/27 02:05:14;;;;;;;8.25;3.50;;;;;;;18.76;66.07;99039.59;5280147;27;20060;-84
2022/10/27 02:07:54;;;;;;;9.00;3.47;;;;;;;18.57;66.62;99041.59;5279861;27;20471;-84
2022/10/27 02:10:31;;;;;;;9.55;3.37;;;;;;;18.68;66.39;99045.28;5280579;27;20064;-84
2022/10/27 02:12:59;;;;;;;8.52;3.28;;;;;;;18.23;67.75;99038.34;5280427;27;20042;-84
2022/10/27 02:15:35;;;;;;;7.35;3.08;;;;;;;18.83;66.25;99033.06;5279603;27;20061;-84
2022/10/27 02:18:06;;;;;;;8.95;3.53;;;;;;;19.06;65.65;99037.72;5280314;27;20057;-84
2022/10/27 02:20:37;;;;;;;8.07;2.92;;;;;;;19.50;63.39;99036.72;5280009;27;20102;-84
2022/10/27 02:23:07;;;;;;;6.78;3.15;;;;;;;19.77;62.44;99035.91;5299649;27;20312;-84
2022/10/27 02:25:57;;;;;;;12.43;3.60;;;;;;;20.15;60.79;99036.88;5280046;27;20072;-84
2022/10/27 02:28:49;;;;;;;8.30;3.20;;;;;;;20.26;60.87;99036.16;5279754;27;20068;-84
2022/10/27 02:31:17;;;;;;;10.63;3.20;;;;;;;19.53;63.80;99027.81;5280264;27;20094;-84
2022/10/27 02:33:45;;;;;;;7.35;3.12;;;;;;;20.35;61.57;99027.69;5299638;27;20324;-84
2022/10/27 02:36:11;;;;;;;8.18;3.33;;;;;;;20.61;60.89;99028.56;5279507;27;20061;-83
2022/10/27 02:38:38;;;;;;;8.95;3.05;;;;;;;20.37;61.69;99038.06;5299756;27;20400;-84
2022/10/27 02:41:05;;;;;;;7.87;3.20;;;;;;;19.03;65.96;99039.66;5299616;27;20400;-84
2022/10/27 02:43:32;;;;;;;7.97;2.65;;;;;;;19.32;65.10;99049.19;5299344;27;20060;-84
2022/10/27 02:45:59;;;;;;;8.93;2.40;;;;;;;20.45;60.16;99048.91;5299484;27;20061;-84
2022/10/27 02:48:26;;;;;;;6.30;2.80;;;;;;;20.05;61.25;99048.06;5299584;27;20061;-84
2022/10/27 02:50:53;;;;;;;7.93;3.40;;;;;;;20.47;59.67;99052.25;5299456;27;20053;-84
2022/10/27 02:53:20;;;;;;;7.78;3.50;;;;;;;19.61;63.06;99054.41;5299748;27;20339;-84
2022/10/27 02:55:46;;;;;;;7.93;3.50;;;;;;;19.34;63.85;99051.69;5298994;27;20061;-84
2022/10/27 02:58:13;;;;;;;7.50;3.35;;;;;;;19.70;63.31;99050.34;5299562;27;20061;-84
2022/10/27 03:00:40;;;;;;;7.10;3.20;;;;;;;20.13;62.12;99051.03;5299641;27;20052;-84
2022/10/27 03:03:08;;;;;;;7.60;3.10;;;;;;;20.90;59.41;99047.56;5299221;27;20066;-84
2022/10/27 03:05:35;;;;;;;9.57;3.17;;;;;;;20.57;60.13;99052.50;5299413;27;20058;-84
2022/10/27 03:08:02;;;;;;;9.93;3.92;;;;;;;20.93;59.21;99051.75;5279848;27;20065;-83
2022/10/27 03:10:29;;;;;;;8.20;3.47;;;;;;;20.72;59.88;99049.66;5299286;27;20045;-84
2022/10/27 03:12:56;;;;;;;7.87;3.22;;;;;;;20.91;59.25;99046.59;5299603;27;20045;-84
2022/10/27 03:15:23;;;;;;;7.90;3.37;;;;;;;20.87;59.33;99044.31;5279882;27;20069;-84
2022/10/27 03:17:50;;;;;;;7.62;3.45;;;;;;;21.25;57.58;99046.88;5279653;27;20061;-84
2022/10/27 03:20:16;;;;;;;7.47;3.25;;;;;;;19.92;62.41;99046.25;5299484;27;20083;-84
2022/10/27 03:22:43;;;;;;;8.90;3.60;;;;;;;20.53;60.66;99051.88;5299426;27;20045;-84
2022/10/27 03:25:13;;;;;;;9.13;3.62;;;;;;;19.91;62.52;99046.34;5298847;27;20065;-84
2022/10/27 03:27:42;;;;;;;7.45;3.33;;;;;;;19.88;63.00;99057.00;5280495;27;20118;-84
2022/10/27 03:30:14;;;;;;;9.95;4.10;;;;;;;19.76;63.61;99061.25;5299427;27;20063;-84
2022/10/27 03:32:48;;;;;;;10.82;4.75;;;;;;;19.81;63.92;99067.06;5298539;27;20064;-84
2022/10/27 03:35:17;;;;;;;9.93;4.37;;;;;;;19.73;64.30;99071.94;5299228;27;20148;-84
2022/10/27 03:37:44;;;;;;;10.07;3.90;;;;;;;19.79;64.34;99074.19;5299037;27;20071;-84
2022/10/27 03:40:11;;;;;;;10.25;4.47;;;;;;;20.20;62.94;99074.09;5299551;27;20063;-84
2022/10/27 03:42:41;;;;;;;8.30;4.07;;;;;;;20.73;60.74;99066.22;5299371;27;20049;-84
2022/10/27 03:45:09;;;;;;;8.95;3.80;;;;;;;20.83;60.24;99075.12;5298801;27;20065;-84
2022/10/27 03:47:36;;;;;;;8.13;3.55;;;;;;;20.46;60.54;99076.81;5299295;27;20401;-84
2022/10/27 03:50:04;;;;;;;8.40;3.37;;;;;;;20.76;58.99;99087.84;5299333;27;20387;-84
2022/10/27 03:52:31;;;;;;;9.75;3.78;;;;;;;20.23;60.51;99084.38;5298766;27;20064;-84
2022/10/27 03:54:59;;;;;;;11.05;3.92;;;;;;;19.75;60.92;99083.16;5299115;27;20062;-84
2022/10/27 03:57:26;;;;;;;9.00;3.80;;;;;;;20.11;60.56;99077.34;5299280;27;20126;-84
2022/10/27 03:59:53;;;;;;;7.00;3.10;;;;;;;19.15;63.55;99078.19;5298842;27;20067;-84
2022/10/27 04:02:19;;;;;;;7.68;3.60;;;;;;;18.83;64.84;99076.69;5299261;27;20052;-84
2022/10/27 04:04:47;;;;;;;9.35;3.72;;;;;;;18.75;64.71;99071.91;5299024;27;20065;-84
2022/10/27 04:07:13;;;;;;;9.88;3.95;;;;;;;17.77;70.29;99080.16;5298764;27;20060;-84
2022/10/27 04:09:40;;;;;;;8.07;3.80;;;;;;;18.11;68.92;99086.91;5298970;27;20049;-84
2022/10/27 04:12:07;;;;;;;8.20;3.42;;;;;;;18.84;64.34;99078.37;5299069;27;20316;-84
2022/10/27 04:14:34;;;;;;;11.18;4.53;;;;;;;18.75;63.78;99087.59;5298714;27;20065;-83
2022/10/27 04:17:01;;;;;;;10.38;4.78;;;;;;;19.44;61.76;99080.75;5279532;27;20474;-84
2022/10/27 04:19:28;;;;;;;13.60;5.50;;;;;;;19.64;61.69;99081.22;5279687;27;20053;-84
2022/10/27 04:21:55;;;;;;;9.82;4.15;;;;;;;18.30;66.15;99080.66;5298683;27;20045;-84
2022/10/27 04:24:22;;;;;;;10.55;4.22;;;;;;;18.20;68.49;99078.56;5298963;27;20057;-84
2022/10/27 04:26:49;;;;;;;11.77;4.28;;;;;;;17.75;69.44;99073.31;5298712;27;20461;-84
2022/10/27 04:29:16;;;;;;;10.18;4.32;;;;;;;18.44;66.86;99091.12;5298938;27;20067;-84
2022/10/27 04:31:43;;;;;;;9.07;3.80;;;;;;;18.55;66.68;99085.28;5299012;27;20100;-84
2022/10/27 04:34:10;;;;;;;7.93;3.42;;;;;;;19.65;61.64;99089.91;5298635;27;20054;-84
2022/10/27 04:36:37;;;;;;;7.65;3.05;;;;;;;19.71;61.24;99093.94;5298870;27;20053;-84
2022/10/27 04:39:03;;;;;;;10.52;4.22;;;;;;;19.96;59.98;99094.03;5298962;27;20064;-84
2022/10/27 04:41:30;;;;;;;9.60;3.97;;;;;;;20.16;58.34;99088.34;5298562;27;20045;-83
2022/10/27 04:43:57;;;;;;;11.05;4.07;;;;;;;19.40;60.61;99095.81;5298993;27;20057;-84
2022/10/27 04:46:24;;;;;;;10.05;4.60;;;;;;;18.93;60.62;99091.72;5299837;27;20114;-84
2022/10/27 04:48:51;;;;;;;11.95;5.45;;;;;;;19.39;58.20;99095.91;5280004;27;20052;-84
2022/10/27 04:51:18;;;;;;;10.40;4.62;;;;;;;18.64;61.15;99096.06;5299906;27;20049;-84
2022/10/27 04:53:49;;;;;;;12.88;5.93;;;;;;;19.68;58.21;99100.22;5300096;27;20071;-84
2022/10/27 04:56:16;;;;;;;10.80;5.18;;;;;;;19.85;57.04;99099.13;5280103;27;20061;-84
2022/10/27 04:58:43;;;;;;;10.68;4.45;;;;;;;19.92;56.92;99105.66;5300026;27;20411;-84
2022/10/27 05:01:11;;;;;;;8.85;3.97;;;;;;;19.58;57.91;99099.09;5299970;27;20051;-84
2022/10/27 05:03:39;;;;;;;11.07;3.80;;;;;;;19.29;58.88;99103.50;5299584;27;20057;-84
2022/10/27 05:06:06;;;;;;;9.18;3.60;;;;;;;19.14;59.52;99107.91;5299611;27;20340;-84
2022/10/27 05:08:33;;;;;;;9.60;3.00;;;;;;;18.37;61.80;99108.09;5299582;27;20048;-84
2022/10/27 05:11:00;;;;;;;9.52;4.28;;;;;;;19.34;59.59;99114.50;5299661;27;20041;-84
2022/10/27 05:13:26;;;;;;;11.23;4.57;;;;;;;19.04;60.10;99114.63;5305562;27;20026;-83
2022/10/27 05:16:01;;;;;;;12.75;4.10;;;;;;;18.69;61.07;99120.16;5300585;27;20056;-84
2022/10/27 05:18:29;;;;;;;9.52;4.30;;;;;;;18.59;61.63;99120.75;5304311;27;20071;-84
2022/10/27 05:20:56;;;;;;;8.88;3.90;;;;;;;19.04;59.91;99114.63;5302305;27;20482;-84
2022/10/27 05:23:23;;;;;;;13.70;4.87;;;;;;;19.18;59.72;99122.47;5301809;27;20061;-84
2022/10/27 05:25:54;;;;;;;10.50;5.40;;;;;;;19.04;59.63;99117.22;5302537;27;20494;-84
2022/10/27 05:28:22;;;;;;;10.20;4.50;;;;;;;18.68;60.96;99122.84;5303188;27;20430;-84
2022/10/27 05:30:48;;;;;;;10.35;4.57;;;;;;;18.91;60.69;99124.09;5304109;27;20045;-84
2022/10/27 05:33:15;;;;;;;10.15;4.00;;;;;;;18.93;59.60;99130.13;5304340;27;20054;-84
2022/10/27 05:35:44;;;;;;;9.40;3.92;;;;;;;18.56;60.78;99134.84;5304395;27;20125;-84
2022/10/27 05:38:11;;;;;;;8.60;3.97;;;;;;;18.33;61.71;99132.72;5303533;27;20053;-84
2022/10/27 05:40:38;;;;;;;11.88;5.28;;;;;;;18.66;60.76;99136.03;5302181;27;20045;-84
2022/10/27 05:43:05;;;;;;;14.90;4.47;;;;;;;17.50;65.48;99133.81;5282918;27;20076;-84
2022/10/27 05:45:33;;;;;;;9.43;4.15;;;;;;;18.52;61.98;99141.19;5302048;27;20029;-84
2022/10/27 05:48:02;;;;;;;11.00;3.90;;;;;;;19.02;60.34;99135.59;5302330;27;20053;-84
2022/10/27 05:50:29;;;;;;;11.00;4.65;;;;;;;19.21;58.82;99140.56;5302014;27;20060;-83
2022/10/27 05:52:56;;;;;;;17.48;4.97;;;;;;;19.19;58.10;99144.22;5299574;27;20061;-84
2022/10/27 05:55:23;;;;;;;8.95;3.67;;;;;;;19.68;55.93;99149.09;5300135;27;20071;-84
2022/10/27 05:57:57;;;;;;;16.58;7.60;;;;;;;19.68;55.50;99147.34;5280094;27;20064;-84
2022/10/27 06:00:29;;;;;;;26.15;11.00;;;;;;;19.06;57.33;99157.22;5300473;27;20055;-83
2022/10/27 06:02:57;;;;;;;19.67;10.15;;;;;;;18.09;60.96;99146.25;5300340;27;20068;-83
2022/10/27 06:05:29;;;;;;;16.70;8.77;;;;;;;18.57;60.30;99149.59;5302915;27;20061;-84
2022/10/27 06:07:57;;;;;;;15.20;5.28;;;;;;;18.85;59.68;99161.94;5282938;27;20408;-84
2022/10/27 06:10:24;;;;;;;8.93;3.22;;;;;;;19.36;58.33;99157.13;5283911;27;20052;-83
2022/10/27 06:12:51;;;;;;;7.10;2.78;;;;;;;19.10;59.41;99165.72;5300927;27;20057;-85
2022/10/27 06:15:18;;;;;;;6.35;2.37;;;;;;;19.51;59.10;99165.81;5300872;27;20111;-85
2022/10/27 06:17:45;;;;;;;7.18;2.53;;;;;;;20.11;57.20;99174.28;5282146;27;20097;-86
2022/10/27 06:20:12;;;;;;;5.75;2.40;;;;;;;20.93;54.29;99173.25;5283307;27;20057;-85
2022/10/27 06:22:38;;;;;;;6.10;2.45;;;;;;;21.61;52.82;99180.00;5299774;27;20423;-85
2022/10/27 06:25:06;;;;;;;5.53;2.28;;;;;;;22.36;50.39;99183.41;5299575;27;20068;-85
2022/10/27 06:27:32;;;;;;;4.72;2.05;;;;;;;22.83;49.19;99188.72;5298937;27;20071;-85
2022/10/27 06:29:59;;;;;;;5.50;2.40;;;;;;;23.26;47.88;99183.69;5300641;27;20063;-86
2022/10/27 06:32:26;;;;;;;8.13;2.47;;;;;;;23.53;47.14;99183.34;5300589;27;20057;-85
2022/10/27 06:34:53;;;;;;;5.20;2.28;;;;;;;23.71;46.69;99189.81;5298480;27;20331;-85
2022/10/27 06:37:20;;;;;;;7.82;2.28;;;;;;;23.71;46.92;99196.91;5302380;27;20502;-85
2022/10/27 06:39:47;;;;;;;5.97;2.20;;;;;;;23.49;47.48;99184.53;5301777;27;20387;-85
2022/10/27 06:42:13;;;;;;;6.00;2.30;;;;;;;23.59;47.22;99186.37;5298123;27;20073;-84
2022/10/27 06:44:40;;;;;;;6.30;2.10;;;;;;;24.08;46.12;99193.03;5301709;27;20057;-86
2022/10/27 06:47:07;;;;;;;8.27;2.20;;;;;;;24.42;46.33;99200.87;5299692;27;20416;-85
2022/10/27 06:49:34;;;;;;;5.70;2.25;;;;;;;25.41;44.49;99202.31;5301486;27;20056;-87
2022/10/27 06:52:01;;;;;;;8.02;3.42;;;;;;;26.20;42.69;99206.81;5302951;27;20026;-87
2022/10/27 06:54:29;;;;;;;9.07;3.67;;;;;;;26.42;42.38;99196.97;5303597;27;20103;-87
2022/10/27 06:56:56;;;;;;;9.65;3.33;;;;;;;27.25;41.53;99207.00;5303266;27;20059;-87
2022/10/27 06:59:23;;;;;;;8.15;3.45;;;;;;;27.85;40.57;99219.91;5301745;27;20045;-87
2022/10/27 07:01:49;;;;;;;9.27;3.20;;;;;;;28.42;38.93;99215.28;5300989;27;20026;-86
2022/10/27 07:04:17;;;;;;;8.98;2.97;;;;;;;28.96;38.59;99222.28;5283849;27;20123;-87
2022/10/27 07:06:43;;;;;;;9.98;2.67;;;;;;;29.14;37.88;99229.38;5305355;27;20041;-87
2022/10/27 07:09:10;;;;;;;7.35;2.42;;;;;;;29.55;37.41;99228.66;5305214;27;139925;-86
2022/10/27 07:11:37;;;;;;;11.02;2.40;;;;;;;29.64;37.63;99229.56;5309643;27;20041;-86
2022/10/27 07:14:04;;;;;;;9.32;2.08;;;;;;;29.98;37.13;99232.19;5305259;27;20032;-87
2022/10/27 07:16:31;;;;;;;4.97;2.10;;;;;;;30.05;36.26;99227.91;5306695;27;20067;-86
2022/10/27 07:19:01;;;;;;;8.57;2.35;;;;;;;30.42;35.71;99238.22;5306166;27;20081;-86
2022/10/27 07:21:28;;;;;;;6.15;2.20;;;;;;;30.21;36.41;99232.50;5286052;27;20040;-87
2022/10/27 07:23:55;;;;;;;7.22;2.33;;;;;;;30.58;36.05;99228.56;5308719;27;20053;-86
2022/10/27 07:26:28;;;;;;;6.68;2.22;;;;;;;30.19;35.97;99235.28;5307705;27;20045;-87
2022/10/27 07:28:55;;;;;;;3.62;2.00;;;;;;;30.11;36.82;99234.47;5307983;27;20066;-86
2022/10/27 07:31:21;;;;;;;7.22;2.78;;;;;;;29.71;37.31;99241.25;5305424;27;20022;-86
2022/10/27 07:33:48;;;;;;;4.87;2.08;;;;;;;29.90;37.13;99254.31;5306376;27;20037;-87
2022/10/27 07:36:15;;;;;;;7.18;2.33;;;;;;;30.17;36.93;99247.09;5303272;27;20061;-86
2022/10/27 07:38:42;;;;;;;5.72;2.15;;;;;;;31.12;35.65;99245.78;5303401;27;20105;-86
2022/10/27 07:41:09;;;;;;;6.05;2.58;;;;;;;31.12;35.52;99248.44;5283926;27;20040;-87
2022/10/27 07:43:38;;;;;;;4.60;2.08;;;;;;;31.35;35.38;99249.44;5304786;27;20029;-86
2022/10/27 07:46:05;;;;;;;7.50;2.53;;;;;;;31.06;35.68;99249.94;5304990;27;20460;-85
2022/10/27 07:48:37;;;;;;;5.35;2.33;;;;;;;30.96;35.93;99249.28;5304650;27;20033;-85
2022/10/27 07:51:03;;;;;;;5.60;2.28;;;;;;;30.81;35.72;99249.09;5304499;27;20532;-85
2022/10/27 07:53:30;;;;;;;5.97;2.50;;;;;;;30.20;36.86;99255.63;5303804;27;20072;-86
2022/10/27 07:55:59;;;;;;;8.10;2.30;;;;;;;30.07;37.35;99254.37;5301566;27;20067;-85
2022/10/27 07:58:26;;;;;;;7.85;2.40;;;;;;;30.72;36.29;99254.59;5301265;27;20045;-85
2022/10/27 08:00:53;;;;;;;6.68;2.80;;;;;;;31.64;34.96;99258.72;5301457;27;20061;-85
2022/10/27 08:03:22;;;;;;;6.07;2.50;;;;;;;32.21;33.78;99271.88;5303338;27;20071;-85
2022/10/27 08:05:52;;;;;;;7.57;2.70;;;;;;;32.09;34.59;99266.09;5311182;27;20025;-85
2022/10/27 08:08:20;;;;;;;6.55;2.53;;;;;;;31.92;34.13;99276.03;5310633;27;20045;-85
2022/10/27 08:10:48;;;;;;;6.78;2.50;;;;;;;30.74;36.41;99269.44;5308963;27;20661;-85
2022/10/27 08:13:15;;;;;;;6.00;2.25;;;;;;;32.46;33.40;99272.62;5304713;27;20050;-84
2022/10/27 08:15:44;;;;;;;5.25;2.22;;;;;;;32.83;32.81;99279.09;5304249;27;20136;-84
2022/10/27 08:18:11;;;;;;;7.18;2.35;;;;;;;31.96;33.58;99273.81;5309487;27;20045;-85
2022/10/27 08:20:43;;;;;;;6.80;2.00;;;;;;;32.50;32.17;99271.25;5311109;27;20068;-85
2022/10/27 08:23:12;;;;;;;7.12;2.20;;;;;;;29.57;36.49;99276.41;5304389;27;20057;-85
2022/10/27 08:25:40;;;;;;;6.22;1.90;;;;;;;30.20;35.47;99278.72;5313147;27;20026;-84
2022/10/27 08:28:12;;;;;;;7.10;2.12;;;;;;;26.37;43.20;99275.91;5313240;27;20029;-85
2022/10/27 08:30:39;;;;;;;7.87;2.10;;;;;;;27.89;39.99;99277.81;5278253;27;20030;-84
2022/10/27 08:33:17;;;;;;;4.28;1.90;;;;;;;26.86;41.78;99274.19;5315903;27;20026;-84
2022/10/27 08:36:11;;;;;;;5.97;2.10;;;;;;;25.94;44.71;99283.13;5317838;27;20021;-83
2022/10/27 08:38:38;;;;;;;8.88;2.15;;;;;;;25.38;47.04;99285.31;5317609;27;20030;-85
2022/10/27 08:41:29;;;;;;;7.32;2.20;;;;;;;27.06;42.87;99279.38;5317234;27;20079;-83
2022/10/27 08:44:20;;;;;;;6.37;2.37;;;;;;;27.24;42.45;99282.16;5299256;27;20034;-84
2022/10/27 08:46:56;;;;;;;6.93;2.40;;;;;;;26.48;44.17;99275.84;5298052;27;20025;-83
2022/10/27 08:49:34;;;;;;;6.57;2.37;;;;;;;25.48;46.85;99270.34;5315054;27;20025;-83
2022/10/27 08:52:15;;;;;;;8.40;2.30;;;;;;;25.06;49.11;99270.34;5296274;27;20077;-83
2022/10/27 08:55:16;;;;;;;6.65;2.47;;;;;;;24.83;48.33;99271.38;5295854;27;20032;-83
2022/10/27 08:57:47;;;;;;;4.80;2.10;;;;;;;24.52;49.33;99268.59;5315803;27;20056;-84
2022/10/27 09:00:14;;;;;;;4.78;1.90;;;;;;;24.17;50.60;99268.75;5316211;27;20089;-83
2022/10/27 09:03:08;;;;;;;7.10;2.47;;;;;;;24.34;50.53;99272.72;5312269;27;20061;-84
2022/10/27 09:06:03;;;;;;;9.80;2.50;;;;;;;25.77;48.69;99275.00;5284015;27;20061;-83
2022/10/27 09:08:44;;;;;;;7.28;2.50;;;;;;;26.37;46.35;99274.12;5280778;27;20056;-84
2022/10/27 09:11:29;;;;;;;6.57;2.30;;;;;;;26.41;45.64;99275.53;5277238;27;20106;-87
2022/10/27 09:14:26;;;;;;;9.73;2.70;;;;;;;24.09;50.61;99257.97;5278225;27;20057;-86
2022/10/27 09:17:06;;;;;;;10.50;2.70;;;;;;;25.14;48.85;99272.38;5278043;27;20089;-86
2022/10/27 09:19:39;;;;;;;8.57;2.92;;;;;;;24.92;49.31;99272.44;5276719;27;20053;-86
2022/10/27 09:22:11;;;;;;;8.02;2.60;;;;;;;26.93;44.57;99262.06;5276338;27;20389;-87
2022/10/27 09:24:38;;;;;;;8.20;2.75;;;;;;;28.32;42.20;99271.09;5277935;27;20412;-85
2022/10/27 09:27:07;;;;;;;7.47;2.58;;;;;;;27.81;42.80;99272.41;5277862;27;20061;-87
2022/10/27 09:29:35;;;;;;;5.95;2.20;;;;;;;28.96;40.07;99272.75;5277515;27;20053;-87
2022/10/27 09:32:28;;;;;;;6.55;2.40;;;;;;;29.84;38.45;99278.03;5277577;27;20041;-88
2022/10/27 09:35:00;;;;;;;5.35;2.22;;;;;;;29.63;38.30;99273.94;5277171;27;20062;-86
2022/10/27 09:37:41;;;;;;;6.78;2.22;;;;;;;30.64;36.30;99273.25;5278380;27;20056;-84
2022/10/27 09:40:12;;;;;;;7.85;2.45;;;;;;;30.03;37.23;99282.28;5279873;27;20053;-85
2022/10/27 09:42:40;;;;;;;9.40;2.40;;;;;;;29.84;38.10;99275.38;5286135;27;20021;-85
2022/10/27 09:45:21;;;;;;;4.97;2.20;;;;;;;28.28;40.49;99276.81;5284259;27;20026;-84
2022/10/27 09:47:55;;;;;;;7.57;2.53;;;;;;;29.36;38.03;99276.72;5283669;27;20373;-84
2022/10/27 09:50:29;;;;;;;7.00;2.22;;;;;;;29.76;38.16;99281.47;5279200;27;20050;-85
2022/10/27 09:52:55;;;;;;;7.85;2.35;;;;;;;30.32;36.14;99277.47;5278475;27;20094;-85
2022/10/27 09:55:25;;;;;;;6.50;2.28;;;;;;;30.69;36.48;99293.03;5279534;27;20416;-85
2022/10/27 09:57:53;;;;;;;7.53;2.58;;;;;;;29.84;37.02;99288.69;5280391;27;20054;-85
2022/10/27 10:00:23;;;;;;;7.82;2.50;;;;;;;30.93;35.25;99278.09;5290564;27;20025;-86
2022/10/27 10:03:05;;;;;;;9.48;2.67;;;;;;;31.17;34.78;99286.09;5285770;27;20022;-85
2022/10/27 10:05:34;;;;;;;6.75;2.08;;;;;;;30.81;35.34;99283.72;5281258;27;20117;-85
2022/10/27 10:08:25;;;;;;;4.87;2.00;;;;;;;30.37;36.07;99285.78;5279957;27;20638;-84
2022/10/27 10:11:02;;;;;;;8.55;2.33;;;;;;;30.65;36.08;99282.91;5278506;27;20086;-85
2022/10/27 10:13:35;;;;;;;7.93;2.25;;;;;;;29.55;37.61;99283.69;5280429;26;20056;-85
2022/10/27 10:16:08;;;;;;;8.88;2.40;;;;;;;28.98;39.13;99283.22;5279159;27;20062;-84
2022/10/27 10:18:37;;;;;;;5.32;2.00;;;;;;;29.63;37.62;99286.41;5279340;27;20068;-85
2022/10/27 10:21:07;;;;;;;8.35;2.50;;;;;;;30.85;35.36;99281.59;5278779;27;20057;-86
2022/10/27 10:23:36;;;;;;;10.55;2.20;;;;;;;31.43;34.85;99279.78;5279885;27;20036;-86
2022/10/27 10:26:14;;;;;;;7.12;2.12;;;;;;;31.87;34.12;99277.53;5283744;27;20118;-84
2022/10/27 10:28:42;;;;;;;5.80;2.17;;;;;;;31.57;34.52;99279.91;5281496;27;20025;-84
2022/10/27 10:31:12;;;;;;;8.80;2.47;;;;;;;31.98;33.82;99276.31;5282930;27;20025;-85
2022/10/27 10:33:45;;;;;;;7.53;2.12;;;;;;;32.87;32.03;99275.06;5282867;27;20162;-85
2022/10/27 10:36:40;;;;;;;6.05;2.10;;;;;;;31.94;32.95;99278.50;5283503;27;20065;-85
2022/10/27 10:39:26;;;;;;;6.95;2.80;;;;;;;31.51;33.93;99274.44;5283738;27;20088;-84
2022/10/27 10:42:08;;;;;;;7.27;2.77;;;;;;;28.42;41.34;99266.56;5282033;27;20049;-85
2022/10/27 10:44:36;;;;;;;7.45;3.10;;;;;;;29.14;39.95;99271.88;5279952;27;20085;-85
2022/10/27 10:47:05;;;;;;;10.10;3.40;;;;;;;29.04;40.54;99266.69;5281616;27;20113;-85
2022/10/27 10:49:36;;;;;;;8.68;3.30;;;;;;;28.92;40.92;99265.22;5278516;27;20437;-84
2022/10/27 10:52:13;;;;;;;7.80;3.05;;;;;;;28.05;42.47;99263.09;5280610;27;20752;-85
2022/10/27 10:54:43;;;;;;;9.13;3.40;;;;;;;27.71;42.88;99271.59;5280667;27;20046;-85
2022/10/27 10:57:34;;;;;;;9.90;3.37;;;;;;;27.45;43.35;99265.25;5280605;27;20064;-85
2022/10/27 11:00:04;;;;;;;10.05;3.30;;;;;;;28.00;43.20;99262.72;5280066;27;20072;-84
2022/10/27 11:02:33;;;;;;;7.75;3.47;;;;;;;27.94;43.07;99261.47;5280581;27;20040;-85
2022/10/27 11:05:17;;;;;;;8.93;3.22;;;;;;;27.35;45.15;99266.09;5279393;27;20387;-85
2022/10/27 11:07:45;;;;;;;8.65;3.12;;;;;;;28.10;42.57;99260.84;5279300;27;20359;-85
2022/10/27 11:10:16;;;;;;;10.15;3.45;;;;;;;28.20;42.43;99258.97;5281357;26;20060;-85
2022/10/27 11:12:51;;;;;;;8.93;2.90;;;;;;;28.73;41.40;99267.03;5278878;27;20098;-86
2022/10/27 11:15:28;;;;;;;7.03;3.30;;;;;;;28.87;40.38;99267.50;5279542;27;20084;-83
2022/10/27 11:18:02;;;;;;;9.30;3.30;;;;;;;28.37;41.33;99257.34;5285892;27;20043;-82
2022/10/27 11:20:35;;;;;;;7.90;2.67;;;;;;;28.89;41.33;99263.72;5287292;27;20078;-83
2022/10/27 11:23:05;;;;;;;8.45;3.12;;;;;;;27.56;43.27;99265.06;5269744;27;20053;-83
2022/10/27 11:25:33;;;;;;;8.63;3.00;;;;;;;28.56;40.79;99264.38;5285047;27;20021;-83
2022/10/27 11:28:10;;;;;;;7.15;2.85;;;;;;;28.28;40.88;99256.44;5281843;27;20613;-82
2022/10/27 11:30:43;;;;;;;8.25;3.00;;;;;;;27.60;44.33;99264.63;5283814;27;20030;-83
2022/10/27 11:33:24;;;;;;;8.95;2.92;;;;;;;28.65;41.11;99261.66;5278886;27;20449;-82
2022/10/27 11:36:09;;;;;;;7.72;2.70;;;;;;;28.61;40.83;99259.47;5276125;27;20416;-81
2022/10/27 11:38:54;;;;;;;7.25;2.62;;;;;;;27.71;43.13;99260.16;5277991;27;20448;-82
2022/10/27 11:41:42;;;;;;;9.18;2.90;;;;;;;28.15;40.86;99256.75;5277340;27;20434;-82
2022/10/27 11:44:40;;;;;;;7.18;2.75;;;;;;;27.60;42.85;99255.84;5278082;27;20049;-84
2022/10/27 11:47:24;;;;;;;10.35;2.80;;;;;;;27.51;42.45;99254.06;5277356;27;20056;-85
2022/10/27 11:50:02;;;;;;;5.93;2.60;;;;;;;26.88;44.17;99254.53;5275404;27;20066;-84
2022/10/27 11:52:44;;;;;;;7.80;2.50;;;;;;;27.60;43.34;99248.72;5276129;27;20061;-84